EDDS Información de aeropuertos

Información de pistas
Pista 07 Longitud 10974 ft Ancho 148 ft
Elevación 1267 ft Umbral 984 ft Rumbo 74
Pista 25 Longitud 10974 ft Ancho 148 ft
Elevación 1181 ft Umbral 0 ft Rumbo 254
Frecuencias
Tipo ATIS Nombre ATIS Frequencia 126.125 MHZ
Tipo CLD Nombre CLNC DEL Frequencia 121.9 MHZ
Tipo DIR Nombre DIR Frequencia 119.85 MHZ
Tipo GND Nombre GND Frequencia 118.6 MHZ
Tipo INFO Nombre LANGEN INF Frequencia 128.95 MHZ
Tipo MISC Nombre DEICING Frequencia 136.825 MHZ
Tipo PTD Nombre BASE OPS P Frequencia 31.8 MHZ
Tipo RDR Nombre LANGEN RAD Frequencia 119.2 MHZ
Tipo RMP Nombre APRON Frequencia 121.7 MHZ
Tipo TWR Nombre TWR Frequencia 118.8 MHZ
Radioayudas
Tipo VOR-DME Nombre Luburg Frequencia 109200 KHZ
Tipo NDB Nombre Stuttgart Frequencia 306 KHZ
Tipo DME Nombre Stuttgart Frequencia 115450 KHZ
Tipo NDB Nombre Stuttgart Frequencia 384 KHZ
Información meteorológica y NOTAM
ADDS - METARS form results

(0255 UTC 20 January 2021)
Data provider http://aviationweather.gov/metar/data/
 
METAR text: EDDS 200250Z 23003KT CAVOK M00/M03 Q1011
Conditions at: EDDS (STUTTGART/ECHTER, DE) observed 0250 UTC 20 January 2021
Temperature: 0.0°C (32°F)
Dewpoint: -3.0°C (27°F) [RH = 80%]
Pressure (altimeter): 29.85 inches Hg (1011.0 mb)
Winds: from the SW (230 degrees) at 3 MPH (3 knots; 1.5 m/s)
Visibility: 6 or more miles (10+ km)
Ceiling: ceiling and visibility are OK
Clouds: unknown
Weather: no significant weather observed at this time

METAR text: EDDS 200220Z VRB02KT CAVOK M00/M03 Q1011
Conditions at: EDDS (STUTTGART/ECHTER, DE) observed 0220 UTC 20 January 2021
Temperature: 0.0°C (32°F)
Dewpoint: -3.0°C (27°F) [RH = 80%]
Pressure (altimeter): 29.85 inches Hg (1011.0 mb)
Winds: variable direction winds at 2 MPH (2 knots; 1.0 m/s)
Visibility: 6 or more miles (10+ km)
Ceiling: ceiling and visibility are OK
Clouds: unknown
Weather: no significant weather observed at this time

Forecast for: EDDS (STUTTGART/ECHTER, DE)
Text: TAF EDDS 192300Z 2000/2024 VRB03KT CAVOK
Forecast period: 0000 UTC 20 January 2021 to 0000 UTC 21 January 2021
Forecast type: FROM: standard forecast or significant change
Winds: variable direction winds at 3 MPH (3 knots; 1.5 m/s)
Visibility: 6 or more miles (10+ km)
Ceiling: unknown
Clouds: missing
Weather: NSW  (no significant weather)